Time;durP1;ratioP1;P1;durP2;ratioP2;P2;SDS_P1;SDS_P2;PMS_P1;PMS_P2;Temp;Humidity;BMP_temperature;BMP_pressure;BME280_temperature;BME280_humidity;BME280_pressure;Samples;Min_cycle;Max_cycle;Signal;HPM_P1;HPM_P2
2024/01/21 00:00:40;;;;;;;6.45;2.55;;;1.60;98.30;;;1.62;46.44;101427.78;5013159;28;20528;-92
2024/01/21 00:03:08;;;;;;;5.45;1.92;;;1.60;96.80;;;1.64;44.62;101428.47;5014181;28;20049;-92
2024/01/21 00:05:35;;;;;;;5.47;2.40;;;1.60;93.00;;;1.67;45.03;101428.22;5015515;28;20390;-92
2024/01/21 00:08:11;;;;;;;5.07;2.00;;;1.70;93.90;;;1.68;45.12;101420.19;4974017;28;20058;-92
2024/01/21 00:10:39;;;;;;;7.35;2.30;;;1.70;93.60;;;1.68;45.51;101422.81;4983945;28;20057;-91
2024/01/21 00:13:07;;;;;;;4.22;1.83;;;1.70;94.20;;;1.70;44.68;101405.09;4993035;28;20410;-92
2024/01/21 00:15:35;;;;;;;5.10;2.05;;;1.70;91.60;;;1.72;43.77;101402.38;4994072;28;20050;-92
2024/01/21 00:18:04;;;;;;;5.22;2.15;;;1.70;90.20;;;1.75;42.75;101395.03;4968596;28;20403;-91
2024/01/21 00:20:32;;;;;;;3.33;1.67;;;1.80;88.30;;;1.78;42.50;101386.06;5009187;28;20045;-92
2024/01/21 00:23:00;;;;;;;6.38;2.42;;;1.80;86.90;;;1.80;41.99;101386.75;4933461;28;20042;-92
2024/01/21 00:25:28;;;;;;;4.32;1.90;;;1.90;85.10;;;1.85;41.24;101367.94;4987670;28;20502;-92
2024/01/21 00:27:56;;;;;;;5.00;2.05;;;1.90;84.30;;;1.87;41.02;101372.13;4942588;28;20051;-92
2024/01/21 00:30:23;;;;;;;4.68;2.20;;;2.00;83.50;;;1.89;41.76;101367.53;4966939;28;20061;-92
2024/01/21 00:32:51;;;;;;;3.90;2.10;;;2.00;84.30;;;1.92;41.50;101369.09;5014716;28;20116;-92
2024/01/21 00:35:24;;;;;;;4.35;2.10;;;2.00;83.30;;;1.91;40.46;101355.13;4981168;28;20054;-91
2024/01/21 00:37:52;;;;;;;4.53;2.15;;;2.10;82.00;;;1.96;41.84;101362.59;4988780;28;20506;-92
2024/01/21 00:40:20;;;;;;;5.32;2.50;;;2.20;83.00;;;1.98;41.34;101364.13;5014394;28;20069;-92
2024/01/21 00:42:47;;;;;;;4.60;2.28;;;2.20;82.10;;;1.98;42.50;101358.88;4996616;28;20050;-91
2024/01/21 00:45:15;;;;;;;7.47;2.30;;;2.10;83.80;;;1.98;41.17;101353.59;4974214;28;20057;-91
2024/01/21 00:47:43;;;;;;;5.13;2.10;;;2.20;81.80;;;2.01;41.60;101350.72;4958629;28;20034;-91
2024/01/21 00:50:11;;;;;;;4.88;2.30;;;2.40;82.40;;;2.00;42.09;101335.03;4979980;28;20046;-92
2024/01/21 00:52:40;;;;;;;4.28;2.05;;;2.20;83.30;;;2.01;42.11;101331.47;4994086;28;20050;-92
2024/01/21 00:55:09;;;;;;;5.75;2.70;;;2.20;82.70;;;2.00;42.08;101327.16;4944831;28;20081;-92
2024/01/21 00:57:37;;;;;;;6.15;2.80;;;2.20;83.00;;;2.01;42.95;101324.41;4961899;28;20112;-92
2024/01/21 01:00:08;;;;;;;5.85;2.60;;;2.20;84.50;;;2.00;42.99;101314.84;4972903;28;20512;-92
2024/01/21 01:02:35;;;;;;;5.30;2.60;;;2.20;84.00;;;2.00;41.85;101319.25;4978033;28;20097;-92
2024/01/21 01:05:03;;;;;;;5.30;2.65;;;2.40;83.10;;;2.01;41.63;101302.53;4998175;28;20104;-92
2024/01/21 01:07:30;;;;;;;5.10;2.50;;;2.20;82.50;;;2.03;42.24;101303.22;4996758;28;20042;-93
2024/01/21 01:09:59;;;;;;;5.35;2.97;;;2.20;83.30;;;2.03;43.08;101306.69;4946870;28;20421;-92
2024/01/21 01:12:27;;;;;;;5.28;2.92;;;2.20;84.30;;;2.00;43.59;101304.34;4976976;28;20062;-92
2024/01/21 01:14:54;;;;;;;6.47;3.00;;;2.10;84.80;;;2.00;42.28;101311.38;4958065;28;20490;-91
2024/01/21 01:17:22;;;;;;;4.78;2.67;;;2.20;82.60;;;2.01;42.74;101311.25;4942083;28;20047;-92
2024/01/21 01:19:49;;;;;;;6.28;3.08;;;2.30;83.90;;;1.99;43.00;101304.44;4974202;28;20046;-92
2024/01/21 01:22:17;;;;;;;5.05;2.53;;;2.10;84.10;;;2.02;42.38;101307.66;4995540;28;20126;-92
2024/01/21 01:24:44;;;;;;;6.35;3.08;;;2.10;82.90;;;2.01;42.79;101290.22;4996186;28;20089;-91
2024/01/21 01:27:14;;;;;;;7.15;3.08;;;2.10;83.10;;;2.04;43.39;101287.28;4984814;28;20058;-92
2024/01/21 01:29:41;;;;;;;7.32;3.88;;;2.10;84.30;;;2.04;42.86;101286.47;4974548;28;20053;-92
2024/01/21 01:32:09;;;;;;;8.27;3.75;;;2.10;83.90;;;2.04;42.51;101291.72;5014175;28;20060;-92
2024/01/21 01:34:40;;;;;;;7.07;3.70;;;2.10;82.50;;;2.02;42.54;101281.34;4996552;28;20591;-92
2024/01/21 01:37:09;;;;;;;5.80;2.97;;;2.10;82.90;;;2.02;42.41;101285.78;4967974;28;20047;-92
2024/01/21 01:39:37;;;;;;;6.10;3.22;;;2.20;82.50;;;2.02;43.39;101275.25;4953561;28;20464;-92
2024/01/21 01:42:07;;;;;;;8.40;3.60;;;2.10;84.30;;;1.97;42.81;101270.41;4967508;28;20055;-92
2024/01/21 01:44:40;;;;;;;7.70;3.72;;;2.10;83.10;;;1.98;43.20;101276.50;4974469;28;20054;-92
2024/01/21 01:47:09;;;;;;;6.80;3.75;;;2.10;83.80;;;2.00;42.42;101275.41;4958667;28;20047;-92
2024/01/21 01:49:48;;;;;;;7.68;3.83;;;2.20;82.60;;;2.00;42.56;101279.81;5004236;28;20038;-92
2024/01/21 01:52:18;;;;;;;7.60;4.40;;;2.10;82.80;;;2.00;42.90;101275.41;4980289;28;20050;-92
2024/01/21 01:54:47;;;;;;;8.05;4.20;;;2.20;83.20;;;1.98;41.76;101273.84;4989335;28;20108;-92
2024/01/21 01:57:16;;;;;;;7.72;4.00;;;2.10;82.50;;;1.98;42.73;101273.84;5014063;28;20050;-92
2024/01/21 01:59:46;;;;;;;7.00;3.70;;;2.10;83.40;;;1.97;42.29;101272.19;4980479;28;20069;-92
2024/01/21 02:02:14;;;;;;;8.18;3.97;;;2.10;82.50;;;1.96;43.07;101270.53;5010057;28;20053;-92
2024/01/21 02:04:42;;;;;;;7.95;4.30;;;2.10;83.60;;;1.93;43.24;101269.00;4973639;28;20035;-92
2024/01/21 02:07:10;;;;;;;9.27;4.40;;;2.10;83.30;;;1.94;42.28;101272.47;4945225;28;20050;-92
2024/01/21 02:09:38;;;;;;;8.77;4.10;;;2.10;82.50;;;1.92;42.50;101263.88;4955829;28;20065;-92
2024/01/21 02:12:06;;;;;;;8.27;4.20;;;2.10;82.50;;;1.91;41.33;101259.59;4997831;28;20046;-92
2024/01/21 02:14:33;;;;;;;8.35;4.55;;;2.10;80.70;;;1.90;43.37;101248.22;5002875;28;20050;-91
2024/01/21 02:17:03;;;;;;;8.63;4.40;;;2.10;83.10;;;1.93;43.76;101249.75;5009359;28;20065;-92
2024/01/21 02:19:31;;;;;;;7.65;3.92;;;2.00;84.80;;;1.96;45.24;101249.50;5006600;28;20054;-92
2024/01/21 02:21:59;;;;;;;9.70;3.97;;;2.00;86.70;;;1.99;44.48;101239.53;4945515;28;20074;-92
2024/01/21 02:24:31;;;;;;;8.45;4.32;;;2.20;86.00;;;2.01;44.94;101236.78;4973342;28;20054;-92
2024/01/21 02:27:00;;;;;;;10.30;4.53;;;2.00;86.70;;;1.99;44.28;101221.09;4983528;28;20046;-91
2024/01/21 02:29:28;;;;;;;9.93;4.65;;;2.00;86.10;;;1.97;44.84;101217.78;5017533;28;20050;-92
2024/01/21 02:31:58;;;;;;;8.35;4.03;;;2.00;86.70;;;1.96;45.27;101210.88;4999973;28;20045;-91
2024/01/21 02:34:26;;;;;;;9.70;4.97;;;2.00;87.30;;;1.96;45.33;101202.97;5018147;28;20052;-92
2024/01/21 02:36:54;;;;;;;9.02;4.30;;;2.00;87.60;;;1.96;44.23;101202.16;4957343;28;20047;-91
2024/01/21 02:39:22;;;;;;;8.52;4.28;;;2.00;86.30;;;1.95;44.70;101196.06;4945385;28;20129;-92
2024/01/21 02:41:50;;;;;;;8.98;4.60;;;2.00;86.40;;;1.96;44.39;101192.47;4965363;28;20074;-91
2024/01/21 02:44:18;;;;;;;9.88;4.55;;;2.00;85.90;;;1.94;44.41;101188.28;5001268;28;20054;-92
2024/01/21 02:46:46;;;;;;;10.27;4.63;;;2.00;85.90;;;1.97;45.08;101194.13;5018868;28;20069;-91
2024/01/21 02:49:16;;;;;;;9.10;4.72;;;2.00;87.30;;;1.97;44.76;101188.84;5019400;28;20578;-91
2024/01/21 02:51:44;;;;;;;8.98;4.10;;;2.00;86.60;;;1.98;44.50;101195.78;5014160;28;20050;-92
2024/01/21 02:54:11;;;;;;;7.75;4.10;;;2.10;86.10;;;1.97;43.35;101188.84;4988211;28;20132;-92
2024/01/21 02:56:39;;;;;;;9.13;4.40;;;2.10;84.60;;;1.94;44.19;101173.34;4966736;28;20046;-92
2024/01/21 02:59:08;;;;;;;9.23;4.30;;;2.10;85.10;;;1.99;44.22;101175.56;4981871;28;20052;-92
2024/01/21 03:01:36;;;;;;;10.48;4.38;;;2.10;86.10;;;1.97;44.57;101180.97;4999089;28;20072;-92
2024/01/21 03:04:03;;;;;;;10.73;4.50;;;2.10;86.40;;;2.00;44.60;101166.69;5016232;28;20472;-92
2024/01/21 03:06:31;;;;;;;10.65;4.55;;;2.20;85.90;;;2.01;43.99;101173.63;5016743;28;20078;-91
2024/01/21 03:08:59;;;;;;;10.20;4.70;;;2.10;85.60;;;2.03;45.37;101172.50;4998918;28;20045;-92
2024/01/21 03:11:27;;;;;;;9.55;5.20;;;2.10;87.00;;;1.97;44.53;101173.06;4982564;28;20045;-92
2024/01/21 03:13:54;;;;;;;8.43;4.55;;;2.10;86.00;;;1.93;44.40;101162.97;4968293;28;20047;-92
2024/01/21 03:16:23;;;;;;;7.57;4.00;;;2.10;85.50;;;1.99;44.27;101167.66;4984106;28;20042;-92
2024/01/21 03:18:53;;;;;;;9.38;4.65;;;2.10;87.00;;;1.93;43.68;101163.78;4997735;28;20061;-92
2024/01/21 03:21:22;;;;;;;;;;;2.10;84.70;;;1.97;44.73;101154.66;4983700;28;20053;-92
2024/01/21 03:23:49;;;;;;;9.23;4.13;;;2.10;86.70;;;1.97;45.21;101159.09;4997160;28;19921;-92
2024/01/21 03:26:17;;;;;;;8.75;4.35;;;2.10;87.20;;;1.96;45.33;101141.66;4962988;28;20102;-92
2024/01/21 03:28:44;;;;;;;9.40;4.60;;;2.00;87.70;;;1.97;46.43;101149.41;4980799;28;20467;-92
2024/01/21 03:31:12;;;;;;;8.43;4.07;;;2.00;89.80;;;2.00;46.57;101146.50;4988550;28;20443;-92
2024/01/21 03:33:42;;;;;;;10.10;4.60;;;2.00;89.90;;;1.94;45.03;101136.50;4979974;28;20554;-92
2024/01/21 03:36:12;;;;;;;10.10;4.72;;;2.00;87.80;;;1.95;45.72;101137.34;5011373;28;20078;-92
2024/01/21 03:38:39;;;;;;;9.57;4.72;;;2.00;89.10;;;1.92;45.90;101127.13;4996348;28;20065;-91
2024/01/21 03:41:07;;;;;;;8.70;4.45;;;2.00;88.90;;;1.95;46.67;101121.56;4998226;28;20496;-92
2024/01/21 03:43:35;;;;;;;8.98;5.00;;;2.00;90.30;;;1.97;47.46;101117.84;4992327;28;20047;-92
2024/01/21 03:46:03;;;;;;;8.88;4.03;;;2.00;91.60;;;1.95;46.61;101109.28;4976229;28;20055;-92
2024/01/21 03:48:31;;;;;;;9.38;4.45;;;1.90;91.10;;;1.94;45.43;101107.59;4962394;28;20045;-91
2024/01/21 03:51:00;;;;;;;8.65;4.05;;;1.90;88.70;;;1.93;45.56;101108.56;5011699;28;20080;-91
2024/01/21 03:53:28;;;;;;;10.40;4.30;;;2.00;88.30;;;1.94;43.98;101097.06;4964967;28;20038;-92
2024/01/21 03:55:56;;;;;;;7.45;3.90;;;1.90;86.70;;;1.89;44.48;101107.16;4998023;28;20042;-92
2024/01/21 03:58:23;;;;;;;8.73;4.22;;;2.00;86.70;;;1.89;43.74;101090.56;4998207;28;20049;-92
2024/01/21 04:00:51;;;;;;;9.07;4.07;;;2.00;84.90;;;1.92;44.61;101098.19;5014795;28;20042;-91
2024/01/21 04:03:19;;;;;;;7.38;4.00;;;2.00;86.50;;;1.91;44.63;101092.09;4979831;28;20042;-92
2024/01/21 04:05:48;;;;;;;9.65;4.25;;;2.00;86.60;;;1.92;44.25;101087.66;4949505;28;20050;-91
2024/01/21 04:08:17;;;;;;;8.73;4.30;;;2.00;86.30;;;1.88;43.98;101087.09;4958702;28;20117;-92
2024/01/21 04:10:44;;;;;;;8.65;4.13;;;2.00;85.10;;;1.88;44.48;101087.09;5012531;28;20041;-91
2024/01/21 04:13:12;;;;;;;8.63;3.97;;;2.00;85.70;;;1.89;45.53;101085.31;5014603;28;20065;-92
2024/01/21 04:15:40;;;;;;;8.55;4.43;;;2.00;87.30;;;1.92;46.29;101080.59;4981630;28;20049;-91
2024/01/21 04:18:08;;;;;;;7.88;4.15;;;2.00;89.10;;;1.92;44.18;101074.53;4998763;28;20044;-92
2024/01/21 04:20:35;;;;;;;7.35;4.07;;;2.00;86.10;;;1.88;43.61;101079.22;4997890;28;20051;-91
2024/01/21 04:23:03;;;;;;;8.50;4.07;;;2.00;85.40;;;1.88;44.33;101068.69;4991203;28;20118;-91
2024/01/21 04:25:31;;;;;;;9.52;4.47;;;2.00;86.10;;;1.84;43.15;101066.47;4973520;28;20042;-91
2024/01/21 04:27:59;;;;;;;7.07;3.90;;;2.00;83.70;;;1.90;43.68;101071.19;4993243;28;21331;-91
2024/01/21 04:30:26;;;;;;;9.13;4.38;;;2.00;84.90;;;1.85;44.40;101066.34;5009904;28;20046;-91
2024/01/21 04:32:54;;;;;;;7.90;4.10;;;2.00;85.10;;;1.80;43.39;101055.41;5000695;28;20045;-91
2024/01/21 04:35:22;;;;;;;8.75;4.32;;;2.00;84.10;;;1.80;43.47;101060.66;4942940;28;20121;-91
2024/01/21 04:37:51;;;;;;;7.75;3.67;;;2.00;83.40;;;1.76;42.91;101056.69;4979253;28;20043;-91
2024/01/21 04:40:19;;;;;;;9.50;4.07;;;2.00;82.30;;;1.80;43.70;101052.78;4974473;28;20047;-91
2024/01/21 04:42:49;;;;;;;8.23;3.72;;;2.00;83.50;;;1.76;43.71;101054.88;4962368;28;20085;-92
2024/01/21 04:45:18;;;;;;;7.53;3.97;;;2.10;83.50;;;1.78;43.43;101046.84;4981414;28;20049;-91
2024/01/21 04:47:46;;;;;;;8.70;4.00;;;2.10;82.80;;;1.78;43.88;101037.16;4996340;28;20092;-91
2024/01/21 04:50:13;;;;;;;9.57;4.15;;;2.10;83.20;;;1.76;43.62;101030.38;4996595;28;20045;-91
2024/01/21 04:52:41;;;;;;;8.35;4.18;;;2.10;82.90;;;1.80;44.18;101010.72;4975632;28;20077;-91
2024/01/21 04:55:09;;;;;;;7.80;4.13;;;2.10;84.10;;;1.73;44.08;101020.16;4970205;28;20057;-92
2024/01/21 04:57:53;;;;;;;8.63;4.13;;;2.10;83.20;;;1.79;44.07;101020.41;4988294;28;20042;-91
2024/01/21 05:00:23;;;;;;;8.32;4.10;;;2.10;83.50;;;1.77;43.76;101011.84;4994552;28;20049;-91
2024/01/21 05:02:53;;;;;;;8.82;4.35;;;2.10;83.20;;;1.76;42.75;101006.72;4979082;28;20054;-91
2024/01/21 05:05:21;;;;;;;7.13;3.87;;;2.10;82.00;;;1.75;42.98;101000.59;4980598;28;20100;-91
2024/01/21 05:07:51;;;;;;;9.25;4.50;;;2.20;82.20;;;1.78;43.80;100994.25;4996430;28;20039;-91
2024/01/21 05:10:19;;;;;;;7.57;3.73;;;2.10;82.90;;;1.81;43.97;100991.34;5010329;28;20046;-91
2024/01/21 05:12:46;;;;;;;8.93;4.18;;;2.10;83.20;;;1.83;44.22;100997.28;4973995;28;20047;-91
2024/01/21 05:15:14;;;;;;;8.40;4.20;;;2.10;83.70;;;1.83;43.86;100993.84;4971262;28;20042;-92
2024/01/21 05:17:43;;;;;;;8.82;4.13;;;2.10;83.20;;;1.81;43.38;100991.34;4996193;28;20493;-91
2024/01/21 05:20:11;;;;;;;9.20;3.65;;;2.10;82.50;;;1.86;43.69;100997.03;5013712;28;20037;-92
2024/01/21 05:22:39;;;;;;;8.00;3.70;;;2.20;83.10;;;1.88;44.75;100994.25;4985534;28;20094;-91
2024/01/21 05:25:07;;;;;;;9.32;4.28;;;2.20;84.40;;;1.85;43.44;100997.13;4996067;28;20429;-91
2024/01/21 05:27:37;;;;;;;7.70;3.67;;;2.20;83.10;;;1.87;43.36;100989.97;4999063;28;20047;-91
2024/01/21 05:30:07;;;;;;;9.45;4.10;;;2.10;82.40;;;1.87;43.52;100993.41;4965816;28;20050;-91
2024/01/21 05:32:35;;;;;;;8.00;4.07;;;2.20;82.40;;;1.81;43.55;100988.72;4963279;28;20047;-91
2024/01/21 05:35:06;;;;;;;8.98;4.28;;;2.20;82.00;;;1.80;43.94;100966.84;4964093;28;20133;-92
2024/01/21 05:37:33;;;;;;;8.07;4.25;;;2.20;82.70;;;1.84;43.67;100977.06;4961145;28;20050;-90
2024/01/21 05:40:02;;;;;;;7.68;3.90;;;2.20;82.50;;;1.82;43.62;100979.84;4995245;28;20061;-91
2024/01/21 05:42:32;;;;;;;6.97;3.80;;;2.20;82.60;;;1.83;43.90;100976.25;5013167;28;20042;-91
2024/01/21 05:45:00;;;;;;;8.60;4.30;;;2.10;82.90;;;1.86;44.82;100975.16;4971059;28;20043;-91
2024/01/21 05:47:28;;;;;;;9.85;4.22;;;2.20;83.90;;;1.85;44.28;100969.03;4957499;28;20051;-91
2024/01/21 05:49:55;;;;;;;8.85;4.18;;;2.20;83.30;;;1.85;43.71;100958.53;4957078;28;20051;-91
2024/01/21 05:52:24;;;;;;;8.65;3.90;;;2.20;82.70;;;1.88;44.56;100967.94;4988622;28;20480;-91
2024/01/21 05:54:53;;;;;;;8.15;4.05;;;2.20;83.90;;;1.88;45.15;100968.75;4999115;28;20110;-91
2024/01/21 05:57:21;;;;;;;8.55;4.28;;;2.20;85.00;;;1.89;45.01;100972.22;4957616;28;20129;-91
2024/01/21 05:59:49;;;;;;;7.30;4.03;;;2.20;84.90;;;1.89;43.98;100964.34;4983520;28;20046;-91
2024/01/21 06:02:18;;;;;;;6.75;3.78;;;2.20;83.30;;;1.92;45.01;100964.88;4994832;28;20046;-91
2024/01/21 06:04:46;;;;;;;8.27;4.22;;;2.20;84.90;;;1.97;45.42;100965.28;4980320;28;20038;-91
2024/01/21 06:07:14;;;;;;;10.90;5.00;;;2.20;86.70;;;1.94;44.80;100941.88;4995980;28;20057;-91
2024/01/21 06:09:43;;;;;;;7.45;4.05;;;2.10;85.30;;;1.93;45.30;100949.94;4979561;28;20052;-91
2024/01/21 06:12:10;;;;;;;19.85;4.53;;;2.10;85.90;;;1.92;45.11;100943.84;4968133;28;20513;-91
2024/01/21 06:14:38;;;;;;;9.27;4.53;;;2.10;85.60;;;1.92;45.36;100930.69;4957284;28;20102;-91
2024/01/21 06:17:05;;;;;;;8.85;4.47;;;2.10;86.10;;;1.97;45.96;100927.63;4956786;28;20050;-91
2024/01/21 06:19:33;;;;;;;8.35;4.72;;;2.10;87.50;;;1.98;45.61;100922.22;4993208;28;20050;-91
2024/01/21 06:22:01;;;;;;;9.00;4.45;;;2.10;86.90;;;1.90;45.01;100913.38;4982022;28;20109;-91
2024/01/21 06:24:29;;;;;;;10.30;5.20;;;2.10;86.20;;;1.94;46.83;100920.03;4989974;28;20046;-92
2024/01/21 06:26:58;;;;;;;8.10;4.47;;;2.10;88.70;;;1.90;45.50;100926.53;5013635;28;20088;-91
2024/01/21 06:29:26;;;;;;;9.52;4.93;;;2.10;86.90;;;1.73;45.47;100928.13;5002486;28;20037;-92
2024/01/21 06:31:53;;;;;;;10.80;4.75;;;2.00;85.90;;;1.80;46.27;100922.13;4979657;28;20151;-91
2024/01/21 06:34:21;;;;;;;10.35;5.22;;;2.00;87.40;;;1.80;46.65;100931.81;4995591;28;20044;-91
2024/01/21 06:36:49;;;;;;;10.20;4.68;;;2.00;88.10;;;1.75;46.16;100927.00;4966425;28;20529;-91
2024/01/21 06:39:16;;;;;;;10.65;4.90;;;2.00;86.90;;;1.77;46.26;100921.59;4979520;28;20169;-91
2024/01/21 06:41:44;;;;;;;9.30;4.82;;;2.00;87.30;;;1.82;46.77;100921.19;4965208;28;20046;-91
2024/01/21 06:44:13;;;;;;;9.85;5.00;;;2.00;88.30;;;1.82;45.61;100911.50;4973612;28;20125;-91
2024/01/21 06:46:41;;;;;;;8.98;4.72;;;2.10;87.30;;;1.87;46.62;100925.03;4955171;28;20056;-91
2024/01/21 06:49:08;;;;;;;10.05;5.25;;;2.10;88.30;;;1.88;46.08;100910.09;4979189;28;20117;-90
2024/01/21 06:51:43;;;;;;;8.73;4.85;;;2.00;88.00;;;1.90;45.93;100913.38;4978577;28;20058;-90
2024/01/21 06:54:11;;;;;;;10.40;5.15;;;2.10;87.70;;;1.91;47.66;100889.59;4973974;28;20402;-91
2024/01/21 06:56:40;;;;;;;10.70;5.18;;;2.20;90.10;;;1.92;47.37;100899.13;4998998;28;20045;-91
2024/01/21 06:59:10;;;;;;;8.98;4.70;;;2.20;89.70;;;1.95;47.57;100906.75;5016737;28;20046;-91
2024/01/21 07:01:39;;;;;;;10.10;5.05;;;2.10;90.20;;;1.95;46.72;100927.78;4991138;28;20630;-91
2024/01/21 07:04:06;;;;;;;10.13;5.45;;;2.20;88.80;;;1.95;46.98;100945.34;4960779;28;20042;-91
2024/01/21 07:06:34;;;;;;;10.18;5.10;;;2.20;89.30;;;1.98;47.23;100953.78;5016364;28;20050;-91
2024/01/21 07:09:01;;;;;;;11.30;5.50;;;2.20;89.80;;;1.96;47.26;100945.22;4974423;28;20085;-91
2024/01/21 07:11:30;;;;;;;11.40;5.65;;;2.20;90.00;;;1.99;47.68;100968.59;4998878;28;20112;-90
2024/01/21 07:13:59;;;;;;;10.32;5.40;;;2.20;90.70;;;2.00;47.98;100969.41;4982262;28;20049;-91
2024/01/21 07:16:26;;;;;;;9.25;5.03;;;2.20;91.20;;;2.01;48.16;100969.28;5016455;28;20046;-91
2024/01/21 07:18:55;;;;;;;11.20;5.43;;;2.20;91.70;;;1.96;47.24;100974.16;4962556;28;20047;-91
2024/01/21 07:21:23;;;;;;;10.98;5.28;;;2.20;90.60;;;2.04;47.87;100979.50;4993111;28;20092;-91
2024/01/21 07:23:50;;;;;;;10.15;5.47;;;2.20;91.20;;;2.00;48.10;100970.28;5016305;28;20442;-91
2024/01/21 07:26:19;;;;;;;10.13;5.65;;;2.20;91.40;;;1.99;48.18;100970.38;5008098;28;20054;-86
2024/01/21 07:28:46;;;;;;;10.95;5.50;;;2.20;91.60;;;2.00;48.25;100967.63;4947011;28;20554;-85
2024/01/21 07:31:16;;;;;;;13.00;6.13;;;2.20;91.90;;;1.96;47.82;100986.47;4962472;28;20075;-87
2024/01/21 07:33:43;;;;;;;12.45;6.00;;;2.20;91.00;;;1.90;47.83;100994.91;4972334;28;20037;-87
2024/01/21 07:36:12;;;;;;;12.10;6.13;;;2.20;90.80;;;1.95;47.92;101006.69;4979196;28;20038;-87
2024/01/21 07:38:40;;;;;;;10.82;5.55;;;2.20;91.60;;;1.97;48.74;101004.72;4990643;28;20046;-86
2024/01/21 07:41:08;;;;;;;12.02;6.20;;;2.20;92.60;;;1.92;48.38;101006.13;5021498;28;20046;-86
2024/01/21 07:43:35;;;;;;;15.43;6.82;;;2.20;91.60;;;1.86;48.67;100996.19;5015754;28;20080;-85
2024/01/21 07:46:04;;;;;;;14.07;6.90;;;2.20;92.30;;;1.88;49.08;101008.22;5002536;28;20034;-86
2024/01/21 07:48:31;;;;;;;12.88;6.10;;;2.20;93.00;;;1.96;49.03;101010.97;5002863;28;20042;-86
2024/01/21 07:50:59;;;;;;;12.30;5.88;;;2.20;93.40;;;1.97;48.41;100999.47;5012414;28;20061;-86
2024/01/21 07:53:28;;;;;;;14.98;6.72;;;2.20;93.50;;;2.01;49.04;101015.81;4980737;28;20071;-86
2024/01/21 07:55:56;;;;;;;12.20;6.30;;;2.20;93.50;;;2.00;48.49;101004.47;5002306;28;20108;-86
2024/01/21 07:58:23;;;;;;;15.70;8.25;;;2.20;93.20;;;1.95;48.78;101013.72;4975259;28;20038;-88
2024/01/21 08:00:51;;;;;;;16.95;9.07;;;2.20;93.20;;;1.92;49.19;101006.13;4994410;28;20500;-86
2024/01/21 08:03:18;;;;;;;18.30;9.43;;;2.10;94.20;;;1.93;49.18;101003.34;4969102;28;20066;-86
2024/01/21 08:05:46;;;;;;;15.80;7.93;;;2.20;94.10;;;1.90;48.45;101001.00;5017756;28;20054;-86
2024/01/21 08:08:14;;;;;;;15.75;8.20;;;2.20;93.10;;;1.93;48.78;100997.28;5020546;28;20061;-84
2024/01/21 08:10:43;;;;;;;25.63;11.43;;;2.20;93.00;;;1.91;49.03;100994.78;4963699;28;20054;-86
2024/01/21 08:13:10;;;;;;;18.35;9.35;;;2.30;93.40;;;1.92;49.23;100970.16;4979849;28;20048;-86
2024/01/21 08:15:38;;;;;;;15.32;8.25;;;2.30;94.00;;;1.98;49.43;100974.81;5018831;28;20138;-86
2024/01/21 08:18:06;;;;;;;15.27;8.10;;;2.30;94.30;;;1.97;49.35;100960.03;4987062;28;20497;-86
2024/01/21 08:20:35;;;;;;;18.05;7.40;;;2.30;94.20;;;2.01;49.55;100964.03;5002390;28;20045;-87
2024/01/21 08:23:02;;;;;;;14.85;8.48;;;2.30;95.10;;;1.95;48.21;100948.81;4984615;28;20045;-88
2024/01/21 08:25:30;;;;;;;14.27;7.50;;;2.30;92.60;;;2.00;48.76;100964.16;4993498;28;20556;-88
2024/01/21 08:27:59;;;;;;;13.52;7.25;;;2.30;93.30;;;2.03;49.19;100956.81;4978200;28;20133;-88
2024/01/21 08:30:26;;;;;;;14.27;7.47;;;2.30;94.20;;;2.04;48.82;100950.56;4964152;28;20521;-88
2024/01/21 08:32:54;;;;;;;11.73;6.38;;;2.40;93.40;;;2.08;48.22;100953.75;4964589;28;20048;-88
2024/01/21 08:35:22;;;;;;;14.25;6.93;;;2.40;92.60;;;2.14;48.14;100955.78;5014702;28;20045;-89
2024/01/21 08:37:51;;;;;;;13.82;7.60;;;2.40;92.40;;;2.13;48.84;100932.28;4996637;28;20061;-88
2024/01/21 08:40:18;;;;;;;14.27;7.60;;;2.40;93.50;;;2.12;48.04;100949.03;5012982;28;20077;-89
2024/01/21 08:42:46;;;;;;;12.43;6.82;;;2.40;92.40;;;2.16;48.60;100945.16;4989647;28;20129;-88
2024/01/21 08:45:16;;;;;;;11.82;7.10;;;2.40;93.10;;;2.11;48.57;100964.00;4959017;28;20073;-88
2024/01/21 08:47:43;;;;;;;13.10;7.38;;;2.40;93.10;;;2.13;48.42;100971.75;4983388;28;20046;-89
2024/01/21 08:50:11;;;;;;;14.73;7.53;;;2.40;92.80;;;2.15;48.60;100986.41;4958762;28;20043;-88
2024/01/21 08:52:47;;;;;;;13.85;7.05;;;2.50;93.70;;;2.16;48.04;101018.81;4981870;28;20046;-88
2024/01/21 08:55:15;;;;;;;14.18;7.25;;;2.50;92.60;;;2.19;48.63;101026.41;5021140;28;20049;-88
2024/01/21 08:57:44;;;;;;;19.75;7.85;;;2.50;93.60;;;2.19;48.00;101043.03;4999462;28;20553;-87
2024/01/21 09:00:15;;;;;;;17.10;7.20;;;2.50;92.40;;;2.24;48.47;101043.41;5013702;28;20096;-90
2024/01/21 09:02:43;;;;;;;21.20;10.52;;;2.50;92.80;;;2.26;48.20;101051.19;4960216;28;20054;-87
2024/01/21 09:05:13;;;;;;;19.02;9.30;;;2.60;92.40;;;2.27;48.21;101053.66;4960704;28;20042;-88
2024/01/21 09:07:40;;;;;;;20.98;9.35;;;2.60;92.60;;;2.28;48.50;101049.22;4994344;28;20052;-87
2024/01/21 09:10:09;;;;;;;15.02;8.45;;;2.60;92.60;;;2.37;48.90;101051.00;5002211;28;20066;-86
2024/01/21 09:12:36;;;;;;;14.65;7.53;;;2.70;93.90;;;2.35;47.85;101039.81;4979311;28;20055;-86
2024/01/21 09:15:05;;;;;;;19.52;8.23;;;2.70;92.10;;;2.32;48.57;101029.56;4946274;28;20046;-86
2024/01/21 09:17:35;;;;;;;15.13;7.53;;;2.70;92.40;;;2.41;48.75;101039.22;4968504;28;20047;-87
2024/01/21 09:20:03;;;;;;;13.70;7.30;;;2.70;92.80;;;2.39;49.00;101062.25;4979095;28;20050;-86
2024/01/21 09:22:30;;;;;;;15.65;7.82;;;2.70;93.70;;;2.37;48.86;101060.72;4962771;28;20051;-86
2024/01/21 09:24:57;;;;;;;15.55;7.78;;;2.70;93.40;;;2.31;49.06;101059.50;4945916;28;20516;-87
2024/01/21 09:27:27;;;;;;;18.20;7.70;;;2.70;93.60;;;2.40;49.58;101063.06;4977233;28;20055;-86
2024/01/21 09:29:54;;;;;;;14.32;7.57;;;2.70;94.50;;;2.40;48.77;101050.72;4963142;28;20058;-87
2024/01/21 09:32:22;;;;;;;14.90;7.57;;;2.70;93.80;;;2.46;49.45;101042.25;4962675;28;20141;-86
2024/01/21 09:34:51;;;;;;;13.25;7.30;;;2.80;94.30;;;2.46;48.80;101051.97;4961176;28;20075;-86
2024/01/21 09:37:19;;;;;;;17.40;8.75;;;2.80;93.40;;;2.41;48.72;101041.88;4959674;29;20553;-86
2024/01/21 09:39:47;;;;;;;15.65;7.70;;;2.80;93.20;;;2.46;48.62;101031.72;4967525;28;20457;-86
2024/01/21 09:42:17;;;;;;;16.25;8.52;;;2.80;93.50;;;2.49;48.58;101033.22;4977763;28;20047;-87
2024/01/21 09:44:45;;;;;;;13.45;7.57;;;2.80;93.10;;;2.47;48.92;101037.81;4960019;28;20465;-88
2024/01/21 09:47:13;;;;;;;15.10;7.75;;;2.80;93.80;;;2.44;48.92;101033.69;4957004;28;20145;-88
2024/01/21 09:49:42;;;;;;;15.00;8.43;;;2.80;93.60;;;2.52;49.23;101048.75;4964949;28;20046;-89
2024/01/21 09:52:11;;;;;;;14.77;7.60;;;2.90;94.60;;;2.57;49.51;101057.84;4961701;28;20405;-88
2024/01/21 09:54:38;;;;;;;12.70;7.72;;;2.90;95.40;;;2.58;49.97;101051.63;4977414;28;20050;-88
2024/01/21 09:57:06;;;;;;;13.88;7.90;;;2.90;96.40;;;2.55;50.00;101048.47;5001765;28;20116;-88
2024/01/21 09:59:34;;;;;;;14.02;7.43;;;2.90;96.00;;;2.57;49.84;101041.25;4977077;28;20132;-88
2024/01/21 10:02:02;;;;;;;17.00;7.75;;;2.90;95.60;;;2.62;49.74;101038.16;4983510;28;20046;-88
2024/01/21 10:04:30;;;;;;;15.57;7.82;;;3.10;96.00;;;2.67;50.59;101036.75;4996312;28;20100;-88
2024/01/21 10:06:58;;;;;;;16.13;7.40;;;3.00;97.00;;;2.71;51.21;101034.66;4996096;28;20114;-89
2024/01/21 10:09:27;;;;;;;15.95;8.45;;;3.10;97.90;;;2.78;50.96;101026.06;4988665;28;20156;-88
2024/01/21 10:11:57;;;;;;;12.82;7.28;;;3.10;98.50;;;2.87;51.76;101012.94;5014319;28;20501;-88
2024/01/21 10:14:27;;;;;;;13.53;7.87;;;3.20;99.90;;;2.93;51.24;101017.63;4996328;28;20057;-88
2024/01/21 10:16:56;;;;;;;14.15;7.70;;;3.30;99.60;;;2.96;50.87;101033.97;4995828;28;20042;-89
2024/01/21 10:19:28;;;;;;;13.35;7.70;;;3.30;99.00;;;3.05;51.22;101040.16;4973610;28;20043;-88
2024/01/21 10:22:09;;;;;;;13.75;7.78;;;3.40;99.60;;;3.06;50.83;101042.66;4976138;28;20532;-88
2024/01/21 10:24:40;;;;;;;14.55;7.47;;;3.40;98.60;;;3.07;50.82;101032.94;4967005;28;20049;-88
2024/01/21 10:27:09;;;;;;;15.63;8.68;;;3.50;99.10;;;3.06;51.10;101037.38;4976507;28;20046;-88